Time;durP1;ratioP1;P1;durP2;ratioP2;P2;SDS_P1;SDS_P2;PMS_P1;PMS_P2;Temp;Humidity;BMP_temperature;BMP_pressure;BME280_temperature;BME280_humidity;BME280_pressure;Samples;Min_cycle;Max_cycle;Signal;HPM_P1;HPM_P2
2022/06/25 00:01:38;;;;;;;;;;;;;;;15.81;59.63;100402.63;4959349;28;1153;-46
2022/06/25 00:04:04;;;;;;;;;;;;;;;15.79;59.76;100399.34;4958916;28;1907;-45
2022/06/25 00:06:29;;;;;;;;;;;;;;;15.76;59.59;100399.91;4958817;28;963;-47
2022/06/25 00:08:55;;;;;;;;;;;;;;;15.72;59.69;100400.47;4959245;28;1150;-49
2022/06/25 00:14:08;;;;;;;;;;;;;;;15.65;59.68;100402.63;4958967;28;1015;-51
2022/06/25 00:16:33;;;;;;;;;;;;;;;15.64;59.50;100398.28;4959309;28;982;-50
2022/06/25 00:18:59;;;;;;;;;;;;;;;15.66;59.34;100396.06;4958743;28;1506;-49
2022/06/25 00:21:24;;;;;;;;;;;;;;;15.66;59.45;100392.50;4958649;28;912;-47
2022/06/25 00:23:50;;;;;;;;;;;;;;;15.63;59.38;100393.06;4958521;28;1910;-47
2022/06/25 00:26:15;;;;;;;;;;;;;;;15.62;59.37;100389.50;4958553;28;1040;-49
2022/06/25 00:28:41;;;;;;;;;;;;;;;15.57;59.44;100387.59;4959330;29;1087;-49
2022/06/25 00:31:06;;;;;;;;;;;;;;;15.57;59.39;100386.75;4959162;28;1208;-48
2022/06/25 00:33:32;;;;;;;;;;;;;;;15.58;59.50;100385.66;4958314;28;1171;-50
2022/06/25 00:35:57;;;;;;;;;;;;;;;15.55;59.30;100389.75;4958650;28;1137;-49
2022/06/25 00:38:23;;;;;;;;;;;;;;;15.55;59.37;100384.28;4958645;28;963;-49
2022/06/25 00:40:48;;;;;;;;;;;;;;;15.53;59.61;100382.94;4958538;29;959;-47
2022/06/25 00:43:14;;;;;;;;;;;;;;;16.10;60.03;100389.13;4958486;28;1971;-49
2022/06/25 00:45:42;;;;;;;;;;;;;;;16.72;60.23;100386.09;4958560;28;1047;-49
2022/06/25 00:48:08;;;;;;;;;;;;;;;16.13;60.84;100382.25;4939627;29;1122;-49
2022/06/25 00:50:33;;;;;;;;;;;;;;;15.96;60.80;100394.38;4957691;29;987;-48
2022/06/25 00:52:59;;;;;;;;;;;;;;;15.87;60.59;100385.91;4958210;28;1192;-49
2022/06/25 00:55:25;;;;;;;;;;;;;;;15.82;60.42;100385.09;4956560;28;1478;-48
2022/06/25 00:57:51;;;;;;;;;;;;;;;15.80;60.19;100379.91;4958276;28;1065;-46
2022/06/25 01:00:17;;;;;;;;;;;;;;;15.76;59.88;100383.44;4940799;29;1215;-49
2022/06/25 01:02:43;;;;;;;;;;;;;;;15.73;59.91;100384.81;4963999;28;1902;-48
2022/06/25 01:05:09;;;;;;;;;;;;;;;15.68;59.70;100382.91;4957888;28;951;-52
2022/06/25 01:07:35;;;;;;;;;;;;;;;15.65;59.60;100377.97;4941113;29;1368;-51
2022/06/25 01:10:00;;;;;;;;;;;;;;;15.67;59.57;100380.44;4940822;29;1129;-51
2022/06/25 01:12:26;;;;;;;;;;;;;;;15.63;59.62;100388.41;4941012;29;1050;-52
2022/06/25 01:15:02;;;;;;;;;;;;;;;15.58;59.72;100382.91;4958049;29;880;-51
2022/06/25 01:17:29;;;;;;;;;;;;;;;15.59;59.59;100381.81;4957764;28;1074;-51
2022/06/25 01:19:54;;;;;;;;;;;;;;;15.59;59.46;100381.00;4957760;28;1794;-51
2022/06/25 01:22:20;;;;;;;;;;;;;;;15.57;59.37;100381.25;4957613;28;1010;-51
2022/06/25 01:24:46;;;;;;;;;;;;;;;15.54;59.38;100379.09;4940550;29;1989;-51
2022/06/25 01:27:12;;;;;;;;;;;;;;;16.30;60.28;100381.91;4957856;29;1007;-52
2022/06/25 01:29:37;;;;;;;;;;;;;;;16.76;60.01;100382.50;4957976;28;1177;-50
2022/06/25 01:32:03;;;;;;;;;;;;;;;16.15;61.26;100382.81;4957633;29;1074;-51
2022/06/25 01:34:28;;;;;;;;;;;;;;;16.04;60.55;100379.28;4940290;29;1184;-50
2022/06/25 01:36:54;;;;;;;;;;;;;;;15.93;60.54;100373.00;4956579;28;951;-51
2022/06/25 01:39:19;;;;;;;;;;;;;;;15.89;60.14;100370.00;4963087;28;1003;-51
2022/06/25 01:41:44;;;;;;;;;;;;;;;15.84;59.97;100380.19;4957531;28;963;-50
2022/06/25 01:44:12;;;;;;;;;;;;;;;15.75;60.18;100379.88;4940586;29;2044;-49
2022/06/25 01:46:37;;;;;;;;;;;;;;;15.72;59.68;100384.00;4960961;28;1169;-51
2022/06/25 01:49:03;;;;;;;;;;;;;;;15.70;59.74;100380.72;4957903;28;1134;-51
2022/06/25 01:51:28;;;;;;;;;;;;;;;15.69;59.49;100381.81;4959146;28;1154;-52
2022/06/25 01:53:54;;;;;;;;;;;;;;;15.64;59.59;100375.50;4942016;29;1302;-50
2022/06/25 01:56:19;;;;;;;;;;;;;;;15.65;59.46;100393.59;4939964;29;1753;-49
2022/06/25 01:58:45;;;;;;;;;;;;;;;15.58;59.72;100388.41;4940308;29;1128;-46
2022/06/25 02:01:11;;;;;;;;;;;;;;;15.55;59.60;100381.53;4939661;29;1221;-48
2022/06/25 02:03:36;;;;;;;;;;;;;;;16.04;60.03;100380.09;4956812;28;1973;-45
2022/06/25 02:06:02;;;;;;;;;;;;;;;16.87;60.13;100385.16;4942313;29;1246;-49
2022/06/25 02:08:31;;;;;;;;;;;;;;;16.21;61.10;100384.41;4957683;29;1023;-48
2022/06/25 02:10:57;;;;;;;;;;;;;;;16.00;60.90;100381.75;4957279;29;995;-47
2022/06/25 02:13:23;;;;;;;;;;;;;;;15.91;60.61;100380.69;4940102;29;1214;-49
2022/06/25 02:15:48;;;;;;;;;;;;;;;15.87;60.22;100379.59;4957570;28;1003;-50
2022/06/25 02:18:14;;;;;;;;;;;;;;;15.86;59.82;100381.50;4956946;28;865;-51
2022/06/25 02:20:45;;;;;;;;;;;;;;;15.79;59.72;100377.41;4956274;28;1038;-49
2022/06/25 02:23:13;;;;;;;;;;;;;;;15.72;59.84;100378.53;4957379;28;1910;-50
2022/06/25 02:25:39;;;;;;;;;;;;;;;15.72;59.77;100384.00;4939924;29;1206;-47
2022/06/25 02:28:05;;;;;;;;;;;;;;;15.68;59.68;100377.44;4940040;29;1300;-51
2022/06/25 02:30:31;;;;;;;;;;;;;;;15.66;59.43;100387.84;4958702;28;1066;-49
2022/06/25 02:32:56;;;;;;;;;;;;;;;15.64;59.44;100386.47;4960729;28;1197;-53
2022/06/25 02:38:47;;;;;;;;;;;;;;;15.58;59.42;100399.34;4960031;29;931;-50
2022/06/25 02:41:14;;;;;;;;;;;;;;;15.52;59.34;100400.47;4943679;29;1170;-47
2022/06/25 02:43:39;;;;;;;;;;;;;;;15.53;59.62;100404.88;4960173;28;1971;-50
2022/06/25 02:46:37;;;;;;;;;;;;;;;17.13;59.70;100399.56;4949712;28;1210;-49
2022/06/25 02:49:03;;;;;;;;;;;;;;;16.45;60.79;100412.03;4943339;29;1350;-51
2022/06/25 02:51:28;;;;;;;;;;;;;;;16.10;61.08;100415.75;4943192;29;1513;-49
2022/06/25 02:53:55;;;;;;;;;;;;;;;16.01;60.59;100427.28;4960437;28;999;-46
2022/06/25 02:59:06;;;;;;;;;;;;;;;15.85;60.13;100425.66;4943569;29;1156;-52
2022/06/25 03:01:45;;;;;;;;;;;;;;;15.83;59.58;100427.88;4942284;29;2043;-53
2022/06/25 03:04:11;;;;;;;;;;;;;;;15.73;59.84;100429.50;4943259;29;1919;-53
2022/06/25 03:06:37;;;;;;;;;;;;;;;15.72;59.55;100435.25;4942794;29;1118;-54
2022/06/25 03:09:03;;;;;;;;;;;;;;;15.67;59.56;100433.34;4942534;29;1209;-48
2022/06/25 03:11:28;;;;;;;;;;;;;;;15.64;59.39;100425.69;4961314;28;1359;-53
2022/06/25 03:14:00;;;;;;;;;;;;;;;15.62;59.45;100433.34;4942947;28;1319;-54
2022/06/25 03:16:26;;;;;;;;;;;;;;;15.60;59.14;100427.31;4942765;29;1145;-54
2022/06/25 03:18:54;;;;;;;;;;;;;;;15.59;59.11;100438.56;4943505;29;1138;-55
2022/06/25 03:21:28;;;;;;;;;;;;;;;16.20;59.88;100432.16;4959540;28;924;-55
2022/06/25 03:23:58;;;;;;;;;;;;;;;17.01;59.95;100430.16;4943703;28;1915;-55
2022/06/25 03:26:24;;;;;;;;;;;;;;;16.28;61.01;100431.59;4943603;29;1172;-55
2022/06/25 03:28:53;;;;;;;;;;;;;;;16.08;60.62;100435.22;4943050;29;1038;-55
2022/06/25 03:31:20;;;;;;;;;;;;;;;16.01;60.36;100435.50;4959694;28;1216;-54
2022/06/25 03:33:47;;;;;;;;;;;;;;;15.94;60.17;100434.97;4942535;29;1479;-54
2022/06/25 03:36:19;;;;;;;;;;;;;;;15.87;59.91;100439.94;4943779;29;1281;-51
2022/06/25 03:38:45;;;;;;;;;;;;;;;15.82;59.92;100437.19;4958960;28;1080;-51
2022/06/25 03:44:06;;;;;;;;;;;;;;;15.73;59.64;100445.94;4942473;28;1910;-53
2022/06/25 03:46:32;;;;;;;;;;;;;;;15.69;59.75;100450.31;4942161;29;1345;-54
2022/06/25 03:48:59;;;;;;;;;;;;;;;15.70;59.78;100449.22;4941631;29;1330;-57
2022/06/25 03:51:44;;;;;;;;;;;;;;;15.70;59.71;100451.97;4955428;29;1212;-56
2022/06/25 03:54:10;;;;;;;;;;;;;;;15.62;59.96;100451.72;4943533;29;1185;-55
2022/06/25 03:56:36;;;;;;;;;;;;;;;15.59;59.84;100452.28;4941654;29;1018;-55
2022/06/25 03:59:02;;;;;;;;;;;;;;;15.54;59.55;100459.41;4942146;28;1157;-55
2022/06/25 04:01:28;;;;;;;;;;;;;;;15.53;59.70;100455.00;4957995;29;1203;-57
2022/06/25 04:03:54;;;;;;;;;;;;;;;15.65;60.11;100454.72;4940737;28;1977;-55
2022/06/25 04:06:20;;;;;;;;;;;;;;;15.66;60.42;100461.84;4927318;29;1116;-55
2022/06/25 04:08:48;;;;;;;;;;;;;;;15.64;60.28;100457.72;4941900;29;1282;-55
2022/06/25 04:11:15;;;;;;;;;;;;;;;15.63;60.57;100465.16;4942352;29;1187;-55
2022/06/25 04:13:44;;;;;;;;;;;;;;;15.65;60.47;100468.41;4941487;28;1211;-54
2022/06/25 04:16:11;;;;;;;;;;;;;;;15.60;60.42;100467.59;4940934;29;2826;-55
2022/06/25 04:18:37;;;;;;;;;;;;;;;15.65;60.26;100476.63;4939224;29;2145;-57
2022/06/25 04:21:03;;;;;;;;;;;;;;;15.77;60.32;100470.06;4943138;29;1976;-54
2022/06/25 04:23:28;;;;;;;;;;;;;;;16.92;61.38;100476.63;4952658;29;2116;-55
2022/06/25 04:25:54;;;;;;;;;;;;;;;16.36;62.04;100474.91;4942030;29;1730;-56
2022/06/25 04:31:23;;;;;;;;;;;;;;;16.12;61.48;100477.44;4941596;29;1431;-55
2022/06/25 04:33:48;;;;;;;;;;;;;;;16.49;59.90;100486.41;4941377;29;1062;-56
2022/06/25 04:36:14;;;;;;;;;;;;;;;16.84;57.74;100490.91;4959005;29;1022;-55
2022/06/25 04:38:48;;;;;;;;;;;;;;;17.47;59.80;100502.38;4953462;29;1176;-56
2022/06/25 04:41:15;;;;;;;;;;;;;;;17.86;58.89;100504.28;4949306;28;1234;-56
2022/06/25 04:43:41;;;;;;;;;;;;;;;17.57;57.58;100499.53;4941380;29;1926;-54
2022/06/25 04:46:12;;;;;;;;;;;;;;;17.42;56.62;100501.31;4941774;28;1154;-55
2022/06/25 04:48:40;;;;;;;;;;;;;;;17.26;56.05;100503.34;4943211;29;1102;-54
2022/06/25 04:51:25;;;;;;;;;;;;;;;17.27;55.42;100512.41;4940625;28;1469;-52
2022/06/25 04:53:57;;;;;;;;;;;;;;;17.95;58.84;100503.38;4941166;29;1228;-55
2022/06/25 04:56:33;;;;;;;;;;;;;;;17.94;57.43;100518.25;4945048;28;1157;-54
2022/06/25 04:58:59;;;;;;;;;;;;;;;17.73;56.34;100508.50;4950879;28;2610;-53
2022/06/25 05:01:57;;;;;;;;;;;;;;;17.62;55.59;100516.00;4941284;29;1517;-54
2022/06/25 05:04:45;;;;;;;;;;;;;;;16.79;57.73;100509.31;4958612;28;1898;-52
2022/06/25 05:07:10;;;;;;;;;;;;;;;16.74;57.46;100516.47;4945769;28;1140;-50
2022/06/25 05:09:37;;;;;;;;;;;;;;;16.64;57.55;100519.28;4944081;29;1168;-51
2022/06/25 05:12:03;;;;;;;;;;;;;;;16.59;57.50;100513.81;4943629;29;1252;-50
2022/06/25 05:14:33;;;;;;;;;;;;;;;16.49;57.58;100525.63;4940309;29;1326;-50
2022/06/25 05:16:58;;;;;;;;;;;;;;;16.55;57.26;100529.19;4940693;29;1360;-53
2022/06/25 05:19:24;;;;;;;;;;;;;;;16.49;57.13;100522.88;4941367;28;1150;-49
2022/06/25 05:21:49;;;;;;;;;;;;;;;16.51;57.17;100530.84;4957774;28;941;-54
2022/06/25 05:24:15;;;;;;;;;;;;;;;16.60;56.31;100523.69;4940944;28;1906;-54
2022/06/25 05:26:41;;;;;;;;;;;;;;;16.60;56.49;100515.44;4940372;29;1051;-54
2022/06/25 05:29:06;;;;;;;;;;;;;;;16.58;56.29;100514.94;4939587;28;2635;-56
2022/06/25 05:31:32;;;;;;;;;;;;;;;16.55;56.03;100516.31;4958031;28;1225;-54
2022/06/25 05:33:57;;;;;;;;;;;;;;;16.58;55.97;100513.00;4940821;29;1310;-56
2022/06/25 05:36:23;;;;;;;;;;;;;;;16.55;55.86;100510.81;4940265;29;1293;-54
2022/06/25 05:38:49;;;;;;;;;;;;;;;17.51;58.34;100512.50;4957898;29;1022;-55
2022/06/25 05:41:14;;;;;;;;;;;;;;;17.60;57.85;100510.81;4958276;28;1142;-55
2022/06/25 05:43:40;;;;;;;;;;;;;;;16.93;58.86;100505.72;4963998;28;1906;-54
2022/06/25 05:46:06;;;;;;;;;;;;;;;16.77;59.05;100506.88;4963287;28;991;-55
2022/06/25 05:48:31;;;;;;;;;;;;;;;16.77;58.78;100512.34;4962542;28;1113;-55
2022/06/25 05:50:57;;;;;;;;;;;;;;;16.68;59.15;100508.56;4957312;29;1054;-55
2022/06/25 05:53:22;;;;;;;;;;;;;;;16.56;59.04;100514.38;4957307;28;1030;-55
2022/06/25 05:55:48;;;;;;;;;;;;;;;17.33;58.23;100514.00;4957109;29;1054;-56
2022/06/25 05:58:13;;;;;;;;;;;;;;;16.53;58.40;100513.00;4954598;28;1240;-56
2022/06/25 06:00:39;;;;;;;;;;;;;;;16.03;57.75;100521.09;4956992;28;2670;-56
2022/06/25 06:03:04;;;;;;;;;;;;;;;15.87;56.49;100522.19;4957892;29;1906;-55
2022/06/25 06:05:30;;;;;;;;;;;;;;;15.78;55.73;100526.53;4957871;28;1152;-54
2022/06/25 06:07:55;;;;;;;;;;;;;;;15.70;55.45;100523.25;4961520;29;895;-55
2022/06/25 06:10:21;;;;;;;;;;;;;;;15.66;54.94;100522.16;4955637;28;1308;-56
2022/06/25 06:12:46;;;;;;;;;;;;;;;15.66;54.39;100521.34;4961499;29;983;-57
2022/06/25 06:15:12;;;;;;;;;;;;;;;15.58;54.51;100514.47;4961412;28;1057;-56
2022/06/25 06:17:37;;;;;;;;;;;;;;;15.52;54.35;100510.09;4961436;28;1501;-57
2022/06/25 06:20:03;;;;;;;;;;;;;;;15.53;54.25;100517.22;4960939;29;1027;-61
2022/06/25 06:22:29;;;;;;;;;;;;;;;15.55;54.54;100509.53;4961176;28;1165;-59
2022/06/25 06:24:54;;;;;;;;;;;;;;;15.63;54.59;100506.25;4964070;28;1911;-57
2022/06/25 06:27:19;;;;;;;;;;;;;;;15.60;54.49;100506.81;4961106;28;1204;-58
2022/06/25 06:29:45;;;;;;;;;;;;;;;15.62;54.43;100512.81;4954845;28;1998;-59
2022/06/25 06:32:11;;;;;;;;;;;;;;;15.63;54.47;100519.97;4960729;28;1157;-56
2022/06/25 06:34:36;;;;;;;;;;;;;;;15.67;54.47;100501.03;4961309;29;1030;-53
2022/06/25 06:37:02;;;;;;;;;;;;;;;15.78;54.52;100516.41;4960739;29;1123;-56
2022/06/25 06:39:27;;;;;;;;;;;;;;;15.75;54.50;100511.44;4966489;28;1121;-55
2022/06/25 06:41:53;;;;;;;;;;;;;;;15.72;54.06;100515.59;4965276;28;1102;-55
2022/06/25 06:44:18;;;;;;;;;;;;;;;15.74;53.65;100513.38;4964007;28;1977;-54
2022/06/25 06:46:44;;;;;;;;;;;;;;;15.69;53.58;100509.81;4960769;28;1229;-50
2022/06/25 06:49:09;;;;;;;;;;;;;;;15.68;53.31;100513.66;4959628;28;1343;-54
2022/06/25 06:51:35;;;;;;;;;;;;;;;15.65;53.16;100509.53;4964789;28;1370;-52
2022/06/25 06:54:00;;;;;;;;;;;;;;;15.70;52.98;100508.72;4961519;28;979;-54
2022/06/25 06:56:25;;;;;;;;;;;;;;;15.67;52.90;100504.63;4959450;28;1181;-54
2022/06/25 06:58:51;;;;;;;;;;;;;;;15.64;52.92;100496.09;4959455;28;1816;-53
2022/06/25 07:01:16;;;;;;;;;;;;;;;15.64;52.71;100496.94;4971698;28;1177;-52
2022/06/25 07:03:42;;;;;;;;;;;;;;;15.62;52.69;100501.88;4971596;28;1973;-53
2022/06/25 07:06:07;;;;;;;;;;;;;;;15.59;52.54;100499.69;4968916;28;1284;-51
2022/06/25 07:08:33;;;;;;;;;;;;;;;15.59;52.51;100496.94;4965947;28;1253;-52
2022/06/25 07:10:58;;;;;;;;;;;;;;;15.57;52.41;100505.44;4944726;28;1138;-51
2022/06/25 07:13:24;;;;;;;;;;;;;;;15.58;52.04;100500.75;4963525;28;967;-55
2022/06/25 07:15:49;;;;;;;;;;;;;;;15.59;51.92;100505.16;4964892;28;1090;-46
2022/06/25 07:18:15;;;;;;;;;;;;;;;15.56;52.10;100505.72;4956510;28;1077;-51
2022/06/25 07:20:40;;;;;;;;;;;;;;;15.53;52.23;100501.59;4960663;29;1054;-58
2022/06/25 07:23:06;;;;;;;;;;;;;;;15.50;52.00;100506.78;4960037;29;1963;-56
2022/06/25 07:25:31;;;;;;;;;;;;;;;15.56;51.91;100501.03;4960200;28;1018;-55
2022/06/25 07:27:57;;;;;;;;;;;;;;;15.52;51.89;100513.63;4959674;28;1185;-56
2022/06/25 07:30:22;;;;;;;;;;;;;;;15.52;52.19;100516.38;4958165;28;1951;-47
2022/06/25 07:32:47;;;;;;;;;;;;;;;15.53;52.01;100522.72;4959865;28;1260;-54
2022/06/25 07:35:13;;;;;;;;;;;;;;;15.51;51.91;100511.19;4961403;28;1035;-53
2022/06/25 07:37:38;;;;;;;;;;;;;;;15.53;52.08;100507.06;4959496;28;989;-55
2022/06/25 07:40:06;;;;;;;;;;;;;;;15.51;51.94;100512.00;4945218;29;1015;-56
2022/06/25 07:42:31;;;;;;;;;;;;;;;15.51;52.07;100498.28;4959691;28;1058;-49
2022/06/25 07:44:58;;;;;;;;;;;;;;;15.49;51.77;100507.91;4959062;28;1910;-50
2022/06/25 07:47:23;;;;;;;;;;;;;;;15.51;51.91;100506.50;4962104;28;1315;-54
2022/06/25 07:52:33;;;;;;;;;;;;;;;15.51;52.14;100502.94;4966993;28;1292;-56
2022/06/25 07:54:59;;;;;;;;;;;;;;;15.48;51.98;100506.25;4956184;29;979;-51
2022/06/25 07:57:24;;;;;;;;;;;;;;;15.55;51.78;100515.84;4959928;28;1282;-58
2022/06/25 07:59:50;;;;;;;;;;;;;;;15.56;51.69;100502.97;4965619;28;2444;-55
2022/06/25 08:02:15;;;;;;;;;;;;;;;15.50;51.76;100502.16;4960856;28;1227;-52
2022/06/25 08:04:41;;;;;;;;;;;;;;;15.54;51.59;100502.41;4958595;28;1988;-57
2022/06/25 08:07:06;;;;;;;;;;;;;;;15.48;52.02;100498.84;4958167;28;1247;-51
2022/06/25 08:09:34;;;;;;;;;;;;;;;15.53;51.86;100498.03;4959697;28;1407;-55
2022/06/25 08:11:59;;;;;;;;;;;;;;;15.46;52.06;100500.19;4959133;29;1326;-56
2022/06/25 08:14:24;;;;;;;;;;;;;;;15.57;51.75;100499.94;4959390;28;1386;-55
2022/06/25 08:16:50;;;;;;;;;;;;;;;15.50;51.52;100499.41;4959278;28;940;-53
2022/06/25 08:19:15;;;;;;;;;;;;;;;15.45;51.93;100498.59;4959407;29;1062;-55
2022/06/25 08:21:41;;;;;;;;;;;;;;;15.55;52.08;100504.88;4962152;28;1062;-48
2022/06/25 08:24:06;;;;;;;;;;;;;;;15.54;51.87;100491.44;4958805;28;1902;-49
2022/06/25 08:26:32;;;;;;;;;;;;;;;15.49;51.88;100505.16;4958903;29;1015;-52
2022/06/25 08:28:57;;;;;;;;;;;;;;;15.54;51.86;100497.75;4959579;28;2104;-46
2022/06/25 08:31:24;;;;;;;;;;;;;;;15.56;52.01;100495.56;4959201;28;1089;-47
2022/06/25 08:33:49;;;;;;;;;;;;;;;15.57;51.59;100501.84;4952088;28;1177;-51
2022/06/25 08:36:15;;;;;;;;;;;;;;;15.52;51.72;100501.88;4958607;28;1125;-53
2022/06/25 08:38:40;;;;;;;;;;;;;;;15.55;51.78;100501.31;4959173;28;1042;-50
2022/06/25 08:41:05;;;;;;;;;;;;;;;15.59;51.91;100505.16;4941126;29;896;-51
2022/06/25 08:43:31;;;;;;;;;;;;;;;15.57;52.02;100501.84;4958746;29;1977;-49
2022/06/25 08:45:56;;;;;;;;;;;;;;;15.59;51.72;100502.41;4958926;28;1274;-46
2022/06/25 08:48:22;;;;;;;;;;;;;;;15.63;51.72;100500.78;4959243;29;1007;-56
2022/06/25 08:50:48;;;;;;;;;;;;;;;15.61;51.80;100502.13;4963803;28;1019;-51
2022/06/25 08:53:14;;;;;;;;;;;;;;;15.52;51.98;100504.59;4965114;28;1165;-50
2022/06/25 08:55:40;;;;;;;;;;;;;;;15.56;51.67;100494.75;4972852;28;1241;-49
2022/06/25 08:58:05;;;;;;;;;;;;;;;15.63;51.69;100502.69;4969827;28;1236;-52
2022/06/25 09:00:31;;;;;;;;;;;;;;;15.54;51.73;100502.41;4963251;28;2036;-53
2022/06/25 09:02:57;;;;;;;;;;;;;;;15.55;51.92;100504.06;4966934;28;1973;-48
2022/06/25 09:05:25;;;;;;;;;;;;;;;15.59;52.14;100504.34;4961224;28;1118;-50
2022/06/25 09:07:57;;;;;;;;;;;;;;;15.57;51.94;100496.38;4957837;28;1149;-53
2022/06/25 09:10:23;;;;;;;;;;;;;;;15.63;51.76;100503.50;4963315;28;1122;-49
2022/06/25 09:12:50;;;;;;;;;;;;;;;15.66;52.35;100511.19;4962827;28;1146;-50
2022/06/25 09:15:22;;;;;;;;;;;;;;;15.68;52.29;100499.94;4956570;28;1082;-50
2022/06/25 09:17:50;;;;;;;;;;;;;;;15.67;52.45;100487.31;4958171;29;1158;-48
2022/06/25 09:20:16;;;;;;;;;;;;;;;15.62;52.18;100493.63;4957767;28;1205;-48
2022/06/25 09:22:51;;;;;;;;;;;;;;;15.64;52.00;100502.44;4963487;28;1054;-52
2022/06/25 09:25:16;;;;;;;;;;;;;;;15.67;52.17;100499.13;4961659;28;1976;-51
2022/06/25 09:27:42;;;;;;;;;;;;;;;15.71;52.03;100500.22;4940578;28;1387;-52
2022/06/25 09:30:14;;;;;;;;;;;;;;;15.62;52.27;100507.34;4953787;28;1935;-49
2022/06/25 09:32:42;;;;;;;;;;;;;;;15.60;52.05;100495.84;4953872;28;1299;-54
2022/06/25 09:35:09;;;;;;;;;;;;;;;15.72;52.77;100493.66;4955060;28;1237;-52
2022/06/25 09:37:34;;;;;;;;;;;;;;;15.84;52.97;100485.16;4961645;28;1078;-51
2022/06/25 09:40:00;;;;;;;;;;;;;;;15.86;53.21;100493.94;4940424;29;1146;-53
2022/06/25 09:42:26;;;;;;;;;;;;;;;15.85;53.32;100491.47;4957602;28;1123;-51
2022/06/25 09:45:07;;;;;;;;;;;;;;;15.84;52.80;100492.59;4956397;29;1906;-55
2022/06/25 09:47:36;;;;;;;;;;;;;;;15.80;52.60;100496.97;4957761;28;995;-52
2022/06/25 09:50:02;;;;;;;;;;;;;;;15.74;52.46;100502.41;4957718;29;1069;-52
2022/06/25 09:52:28;;;;;;;;;;;;;;;15.77;52.26;100500.22;4957004;28;1151;-51
2022/06/25 09:54:53;;;;;;;;;;;;;;;15.68;52.08;100481.59;4958058;28;1280;-43
2022/06/25 09:57:19;;;;;;;;;;;;;;;15.76;51.63;100491.16;4957654;29;956;-47
2022/06/25 09:59:44;;;;;;;;;;;;;;;15.71;51.69;100486.53;4957042;28;2223;-47
2022/06/25 10:02:10;;;;;;;;;;;;;;;15.77;51.42;100494.72;4940420;29;904;-48
2022/06/25 10:04:35;;;;;;;;;;;;;;;15.77;51.30;100489.25;4957586;28;1906;-46
2022/06/25 10:07:02;;;;;;;;;;;;;;;15.72;51.76;100496.41;4956595;28;1170;-47
2022/06/25 10:09:27;;;;;;;;;;;;;;;15.72;51.43;100490.91;4957306;28;884;-47
2022/06/25 10:11:52;;;;;;;;;;;;;;;15.69;51.60;100491.44;4940791;29;980;-44
2022/06/25 10:14:18;;;;;;;;;;;;;;;15.72;51.36;100493.66;4940614;29;1229;-44
2022/06/25 10:16:43;;;;;;;;;;;;;;;15.71;51.59;100493.91;4957032;28;1173;-45
2022/06/25 10:19:10;;;;;;;;;;;;;;;15.69;51.32;100494.19;4956967;29;1035;-47
2022/06/25 10:21:35;;;;;;;;;;;;;;;15.68;51.55;100491.72;4957462;29;1044;-47
2022/06/25 10:24:01;;;;;;;;;;;;;;;15.65;51.31;100504.06;4939961;29;1910;-45
2022/06/25 10:26:27;;;;;;;;;;;;;;;15.70;51.33;100506.00;4957436;28;1038;-45
2022/06/25 10:28:52;;;;;;;;;;;;;;;15.64;51.39;100499.69;4942917;29;1035;-43
2022/06/25 10:31:18;;;;;;;;;;;;;;;15.61;51.27;100510.34;4937827;28;1166;-45
2022/06/25 10:33:54;;;;;;;;;;;;;;;15.65;51.15;100504.06;4957583;28;983;-45
2022/06/25 10:36:38;;;;;;;;;;;;;;;15.60;51.03;100503.22;4957222;29;1058;-45
2022/06/25 10:39:22;;;;;;;;;;;;;;;15.58;51.00;100508.97;4958551;28;967;-53
2022/06/25 10:44:50;;;;;;;;;;;;;;;15.63;52.04;100521.88;4956975;28;1906;-49
2022/06/25 10:47:16;;;;;;;;;;;;;;;15.66;51.50;100526.81;4957067;29;1018;-49
2022/06/25 10:49:41;;;;;;;;;;;;;;;15.62;51.39;100523.78;4957089;28;1185;-46
2022/06/25 10:52:07;;;;;;;;;;;;;;;15.62;51.24;100529.28;4958911;28;1028;-47
2022/06/25 10:54:34;;;;;;;;;;;;;;;15.59;51.47;100526.28;4960938;28;1164;-48
2022/06/25 10:57:00;;;;;;;;;;;;;;;15.57;51.37;100518.28;4961099;29;1129;-49
2022/06/25 10:59:33;;;;;;;;;;;;;;;15.52;51.47;100526.53;4960560;28;1145;-47
2022/06/25 11:01:59;;;;;;;;;;;;;;;15.56;51.10;100527.63;4960298;29;1015;-50
2022/06/25 11:04:27;;;;;;;;;;;;;;;15.59;50.89;100529.81;4960807;28;1983;-49
2022/06/25 11:06:53;;;;;;;;;;;;;;;15.54;51.27;100538.88;4963024;28;1018;-46
2022/06/25 11:09:19;;;;;;;;;;;;;;;15.50;51.11;100534.19;4960555;29;1074;-49
2022/06/25 11:11:46;;;;;;;;;;;;;;;15.55;51.00;100539.69;4960188;28;1073;-51
2022/06/25 11:14:12;;;;;;;;;;;;;;;15.56;51.00;100544.06;4960309;28;921;-52
2022/06/25 11:16:38;;;;;;;;;;;;;;;15.49;50.76;100544.34;4960513;29;1062;-43
2022/06/25 11:19:03;;;;;;;;;;;;;;;15.50;51.11;100534.19;4958149;28;1157;-50
2022/06/25 11:21:29;;;;;;;;;;;;;;;15.51;50.71;100541.31;4959160;28;1038;-45
2022/06/25 11:24:13;;;;;;;;;;;;;;;15.47;51.08;100543.78;4959099;28;1911;-49
2022/06/25 11:29:24;;;;;;;;;;;;;;;15.44;51.03;100558.03;4960557;28;1145;-50
2022/06/25 11:31:51;;;;;;;;;;;;;;;15.45;50.67;100548.72;4960144;29;1138;-46
2022/06/25 11:34:19;;;;;;;;;;;;;;;15.40;50.93;100543.22;4959810;28;1256;-48
2022/06/25 11:36:45;;;;;;;;;;;;;;;15.49;50.72;100549.00;4958857;29;1023;-49
2022/06/25 11:39:13;;;;;;;;;;;;;;;15.45;50.72;100542.41;4958673;28;1160;-47
2022/06/25 11:41:38;;;;;;;;;;;;;;;15.44;50.96;100546.25;4960395;28;1276;-46
2022/06/25 11:44:05;;;;;;;;;;;;;;;15.46;50.75;100536.66;4965044;28;1977;-50
2022/06/25 11:46:32;;;;;;;;;;;;;;;15.48;50.77;100531.72;4957686;28;1205;-49
2022/06/25 11:48:58;;;;;;;;;;;;;;;15.42;50.88;100526.50;4959887;28;1062;-49
2022/06/25 11:51:24;;;;;;;;;;;;;;;15.44;50.81;100530.63;4958770;28;1259;-48
2022/06/25 11:53:50;;;;;;;;;;;;;;;15.48;50.71;100537.19;4941975;29;890;-49
2022/06/25 11:56:16;;;;;;;;;;;;;;;15.44;50.90;100543.50;4965700;28;1077;-49
2022/06/25 11:58:42;;;;;;;;;;;;;;;15.36;50.95;100545.69;4959853;28;1582;-49
2022/06/25 12:01:07;;;;;;;;;;;;;;;15.40;50.89;100524.03;4959800;28;1030;-49
2022/06/25 12:03:33;;;;;;;;;;;;;;;15.48;50.92;100542.69;4958017;28;1899;-48
2022/06/25 12:05:58;;;;;;;;;;;;;;;15.38;50.79;100540.75;4958203;28;1022;-47
2022/06/25 12:08:24;;;;;;;;;;;;;;;15.42;50.80;100540.19;4959783;28;1094;-51
2022/06/25 12:10:51;;;;;;;;;;;;;;;15.40;50.81;100545.94;4970621;28;1043;-51
2022/06/25 12:13:19;;;;;;;;;;;;;;;15.41;50.84;100542.13;4960308;28;1335;-50
2022/06/25 12:15:44;;;;;;;;;;;;;;;15.41;50.82;100547.59;4946981;28;1094;-52
2022/06/25 12:18:10;;;;;;;;;;;;;;;15.39;50.84;100534.19;4959187;29;1062;-50
2022/06/25 12:20:42;;;;;;;;;;;;;;;15.39;50.74;100539.66;4960078;28;995;-52
2022/06/25 12:23:07;;;;;;;;;;;;;;;15.36;51.01;100531.16;4945544;29;1903;-50
2022/06/25 12:25:34;;;;;;;;;;;;;;;15.43;50.86;100539.13;4959486;28;1051;-49
2022/06/25 12:27:59;;;;;;;;;;;;;;;15.37;51.06;100557.47;4959795;29;1082;-47
2022/06/25 12:30:28;;;;;;;;;;;;;;;15.43;51.03;100550.06;4959568;28;862;-50
2022/06/25 12:32:56;;;;;;;;;;;;;;;15.48;52.26;100552.84;4959215;28;1161;-48
2022/06/25 12:35:23;;;;;;;;;;;;;;;15.55;53.46;100553.38;4958999;28;1046;-46
2022/06/25 12:37:59;;;;;;;;;;;;;;;15.76;53.68;100550.66;4959230;28;1014;-50
2022/06/25 12:40:24;;;;;;;;;;;;;;;15.77;54.53;100555.88;4958980;29;1042;-52
2022/06/25 12:42:54;;;;;;;;;;;;;;;15.72;54.96;100559.44;4960562;28;1045;-46
2022/06/25 12:45:19;;;;;;;;;;;;;;;15.68;53.71;100558.34;4960221;28;1918;-49
2022/06/25 12:47:45;;;;;;;;;;;;;;;15.68;53.01;100576.69;4958729;28;1015;-52
2022/06/25 12:50:22;;;;;;;;;;;;;;;15.64;52.38;100568.22;4957526;29;1097;-46
2022/06/25 12:52:48;;;;;;;;;;;;;;;15.63;52.04;100566.56;4958874;28;1106;-43
2022/06/25 12:55:17;;;;;;;;;;;;;;;15.57;51.92;100562.16;4958600;28;872;-45
2022/06/25 12:57:42;;;;;;;;;;;;;;;15.64;51.71;100567.38;4957944;28;1002;-45
2022/06/25 13:00:16;;;;;;;;;;;;;;;15.59;51.55;100573.69;4959066;29;983;-50
2022/06/25 13:02:42;;;;;;;;;;;;;;;15.67;52.55;100567.66;4958652;28;1065;-50
2022/06/25 13:05:07;;;;;;;;;;;;;;;15.62;52.58;100564.91;4958774;28;1914;-49
2022/06/25 13:07:33;;;;;;;;;;;;;;;15.62;51.95;100567.66;4958600;29;1044;-52
2022/06/25 13:09:58;;;;;;;;;;;;;;;15.58;51.92;100574.75;4958572;29;860;-51